sensor_id;sensor_type;location;lat;lon;timestamp;pressure;altitude;pressure_sealevel;temperature;humidity
63405;BME280;49541;57.840;12.306;2023-02-15T00:04:49;102174.53;;;4.64;74.31
63405;BME280;49541;57.840;12.306;2023-02-15T00:09:50;102173.66;;;4.15;75.68
63405;BME280;49541;57.840;12.306;2023-02-15T00:14:50;102166.97;;;4.30;75.19
63405;BME280;49541;57.840;12.306;2023-02-15T00:19:50;102158.50;;;4.22;75.69
63405;BME280;49541;57.840;12.306;2023-02-15T00:24:50;102156.22;;;4.11;76.33
63405;BME280;49541;57.840;12.306;2023-02-15T00:29:50;102151.47;;;4.21;76.73
63405;BME280;49541;57.840;12.306;2023-02-15T00:34:51;102150.72;;;4.17;76.71
63405;BME280;49541;57.840;12.306;2023-02-15T00:39:51;102150.72;;;4.17;76.73
63405;BME280;49541;57.840;12.306;2023-02-15T00:44:52;102138.47;;;4.16;76.13
63405;BME280;49541;57.840;12.306;2023-02-15T00:49:52;102139.69;;;4.56;75.33
63405;BME280;49541;57.840;12.306;2023-02-15T00:54:52;102139.09;;;4.48;74.94
63405;BME280;49541;57.840;12.306;2023-02-15T00:59:52;102129.06;;;4.09;76.11
63405;BME280;49541;57.840;12.306;2023-02-15T01:04:52;102133.78;;;3.99;77.15
63405;BME280;49541;57.840;12.306;2023-02-15T01:09:52;102114.94;;;3.85;77.34
63405;BME280;49541;57.840;12.306;2023-02-15T01:14:53;102119.78;;;3.97;76.98
63405;BME280;49541;57.840;12.306;2023-02-15T01:19:53;102111.44;;;3.84;76.78
63405;BME280;49541;57.840;12.306;2023-02-15T01:24:53;102105.97;;;3.90;77.49
63405;BME280;49541;57.840;12.306;2023-02-15T01:29:53;102095.91;;;4.27;75.81
63405;BME280;49541;57.840;12.306;2023-02-15T01:34:53;102085.75;;;4.40;75.55
63405;BME280;49541;57.840;12.306;2023-02-15T01:39:53;102078.38;;;4.26;75.20
63405;BME280;49541;57.840;12.306;2023-02-15T01:44:57;102077.56;;;3.74;77.20
63405;BME280;49541;57.840;12.306;2023-02-15T01:50:00;102072.78;;;3.60;77.98
63405;BME280;49541;57.840;12.306;2023-02-15T01:55:01;102068.53;;;3.56;78.35
63405;BME280;49541;57.840;12.306;2023-02-15T02:00:03;102059.00;;;3.52;78.11
63405;BME280;49541;57.840;12.306;2023-02-15T02:05:04;102052.06;;;3.49;78.17
63405;BME280;49541;57.840;12.306;2023-02-15T02:10:07;102048.34;;;3.55;78.11
63405;BME280;49541;57.840;12.306;2023-02-15T02:15:07;102048.63;;;3.47;78.62
63405;BME280;49541;57.840;12.306;2023-02-15T02:41:17;102015.56;;;3.63;78.36
63405;BME280;49541;57.840;12.306;2023-02-15T02:46:43;102018.16;;;3.90;78.13
63405;BME280;49541;57.840;12.306;2023-02-15T02:51:45;102009.00;;;4.24;76.67
63405;BME280;49541;57.840;12.306;2023-02-15T02:56:46;102001.75;;;4.75;74.13
63405;BME280;49541;57.840;12.306;2023-02-15T03:01:50;101994.63;;;4.77;74.73
63405;BME280;49541;57.840;12.306;2023-02-15T03:06:52;101982.13;;;4.36;74.99
63405;BME280;49541;57.840;12.306;2023-02-15T03:11:55;101974.94;;;4.41;75.11
63405;BME280;49541;57.840;12.306;2023-02-15T03:16:55;101961.41;;;4.27;76.09
63405;BME280;49541;57.840;12.306;2023-02-15T03:21:57;101972.25;;;4.65;73.83
63405;BME280;49541;57.840;12.306;2023-02-15T03:27:10;101966.88;;;4.44;74.83
63405;BME280;49541;57.840;12.306;2023-02-15T03:32:12;101956.88;;;4.30;75.50
63405;BME280;49541;57.840;12.306;2023-02-15T03:37:35;101952.13;;;3.93;76.31
63405;BME280;49541;57.840;12.306;2023-02-15T03:42:37;101957.88;;;3.81;77.17
63405;BME280;49541;57.840;12.306;2023-02-15T03:47:40;101955.16;;;3.82;76.98
63405;BME280;49541;57.840;12.306;2023-02-15T03:52:41;101953.66;;;4.00;76.08
63405;BME280;49541;57.840;12.306;2023-02-15T03:57:42;101952.84;;;3.98;75.52
63405;BME280;49541;57.840;12.306;2023-02-15T04:08:20;101933.22;;;4.05;75.75
63405;BME280;49541;57.840;12.306;2023-02-15T04:13:21;101930.19;;;4.16;74.59
63405;BME280;49541;57.840;12.306;2023-02-15T04:18:22;101930.19;;;4.16;74.65
63405;BME280;49541;57.840;12.306;2023-02-15T04:23:40;101931.69;;;4.45;74.01
63405;BME280;49541;57.840;12.306;2023-02-15T04:28:59;101934.06;;;4.51;73.24
63405;BME280;49541;57.840;12.306;2023-02-15T04:34:00;101933.44;;;4.45;72.76
63405;BME280;49541;57.840;12.306;2023-02-15T04:39:00;101916.97;;;3.94;74.56
63405;BME280;49541;57.840;12.306;2023-02-15T04:44:00;101916.03;;;3.48;76.96
63405;BME280;49541;57.840;12.306;2023-02-15T04:49:01;101907.78;;;3.34;78.29
63405;BME280;49541;57.840;12.306;2023-02-15T04:54:01;101905.00;;;3.62;77.81
63405;BME280;49541;57.840;12.306;2023-02-15T04:59:01;101901.91;;;3.25;78.11
63405;BME280;49541;57.840;12.306;2023-02-15T05:04:02;101894.47;;;3.62;77.88
63405;BME280;49541;57.840;12.306;2023-02-15T05:09:02;101888.84;;;3.95;76.54
63405;BME280;49541;57.840;12.306;2023-02-15T05:14:03;101883.00;;;3.86;75.61
63405;BME280;49541;57.840;12.306;2023-02-15T05:19:03;101877.81;;;4.51;73.76
63405;BME280;49541;57.840;12.306;2023-02-15T05:24:03;101880.28;;;4.12;74.79
63405;BME280;49541;57.840;12.306;2023-02-15T05:29:24;101869.91;;;4.07;76.22
63405;BME280;49541;57.840;12.306;2023-02-15T05:34:24;101860.03;;;3.66;77.19
63405;BME280;49541;57.840;12.306;2023-02-15T05:39:24;101862.56;;;3.69;77.76
63405;BME280;49541;57.840;12.306;2023-02-15T05:44:24;101859.47;;;3.82;77.17
63405;BME280;49541;57.840;12.306;2023-02-15T05:49:24;101871.75;;;4.05;76.04
63405;BME280;49541;57.840;12.306;2023-02-15T05:54:25;101863.94;;;4.02;75.63
63405;BME280;49541;57.840;12.306;2023-02-15T05:59:25;101857.75;;;3.81;76.64
63405;BME280;49541;57.840;12.306;2023-02-15T06:04:26;101842.00;;;3.56;78.09
63405;BME280;49541;57.840;12.306;2023-02-15T06:09:26;101849.66;;;3.85;77.03
63405;BME280;49541;57.840;12.306;2023-02-15T06:14:26;101850.97;;;3.74;77.26
63405;BME280;49541;57.840;12.306;2023-02-15T06:19:26;101849.38;;;3.69;76.83
63405;BME280;49541;57.840;12.306;2023-02-15T06:24:26;101847.94;;;3.61;77.29
63405;BME280;49541;57.840;12.306;2023-02-15T06:29:27;101842.63;;;3.39;78.40
63405;BME280;49541;57.840;12.306;2023-02-15T06:34:27;101830.25;;;3.17;79.64
63405;BME280;49541;57.840;12.306;2023-02-15T06:39:27;101834.72;;;3.15;81.01
63405;BME280;49541;57.840;12.306;2023-02-15T06:44:27;101833.34;;;3.28;79.60
63405;BME280;49541;57.840;12.306;2023-02-15T06:49:27;101834.31;;;3.73;78.52
63405;BME280;49541;57.840;12.306;2023-02-15T06:54:27;101836.50;;;3.62;77.84
63405;BME280;49541;57.840;12.306;2023-02-15T06:59:28;101832.09;;;3.62;78.60
63405;BME280;49541;57.840;12.306;2023-02-15T07:04:28;101825.84;;;3.41;78.53
63405;BME280;49541;57.840;12.306;2023-02-15T07:09:29;101820.41;;;3.46;78.33
63405;BME280;49541;57.840;12.306;2023-02-15T07:14:29;101835.16;;;3.26;78.67
63405;BME280;49541;57.840;12.306;2023-02-15T07:19:29;101828.31;;;2.72;80.82
63405;BME280;49541;57.840;12.306;2023-02-15T07:24:30;101825.97;;;2.90;80.87
63405;BME280;49541;57.840;12.306;2023-02-15T07:29:30;101825.38;;;2.81;81.61
63405;BME280;49541;57.840;12.306;2023-02-15T07:34:30;101827.44;;;2.46;83.54
63405;BME280;49541;57.840;12.306;2023-02-15T07:39:30;101822.94;;;2.50;84.08
63405;BME280;49541;57.840;12.306;2023-02-15T07:44:30;101817.34;;;2.59;84.49
63405;BME280;49541;57.840;12.306;2023-02-15T07:49:31;101815.81;;;2.79;83.08
63405;BME280;49541;57.840;12.306;2023-02-15T07:54:31;101810.84;;;2.71;84.64
63405;BME280;49541;57.840;12.306;2023-02-15T07:59:31;101812.97;;;3.10;82.32
63405;BME280;49541;57.840;12.306;2023-02-15T08:04:31;101812.25;;;3.05;81.75
63405;BME280;49541;57.840;12.306;2023-02-15T08:09:31;101811.78;;;2.43;84.57
63405;BME280;49541;57.840;12.306;2023-02-15T08:14:32;101806.47;;;2.70;84.83
63405;BME280;49541;57.840;12.306;2023-02-15T08:19:32;101797.50;;;2.51;84.65
63405;BME280;49541;57.840;12.306;2023-02-15T08:24:33;101795.34;;;2.37;85.42
63405;BME280;49541;57.840;12.306;2023-02-15T08:29:34;101775.66;;;2.49;85.99
63405;BME280;49541;57.840;12.306;2023-02-15T08:34:37;101773.34;;;2.90;83.64
63405;BME280;49541;57.840;12.306;2023-02-15T08:39:37;101764.69;;;2.86;84.54
63405;BME280;49541;57.840;12.306;2023-02-15T08:44:38;101753.78;;;2.97;82.94
63405;BME280;49541;57.840;12.306;2023-02-15T08:49:38;101755.72;;;2.92;82.96
63405;BME280;49541;57.840;12.306;2023-02-15T08:54:38;101747.81;;;2.68;83.54
63405;BME280;49541;57.840;12.306;2023-02-15T08:59:38;101748.22;;;2.81;83.45
63405;BME280;49541;57.840;12.306;2023-02-15T09:04:39;101749.25;;;2.52;83.75
63405;BME280;49541;57.840;12.306;2023-02-15T09:09:39;101743.31;;;2.72;83.68
63405;BME280;49541;57.840;12.306;2023-02-15T09:14:39;101739.56;;;2.77;83.48
63405;BME280;49541;57.840;12.306;2023-02-15T09:19:39;101733.72;;;2.19;84.25
63405;BME280;49541;57.840;12.306;2023-02-15T09:24:39;101725.38;;;2.58;84.49
63405;BME280;49541;57.840;12.306;2023-02-15T09:29:39;101721.69;;;2.87;83.33
63405;BME280;49541;57.840;12.306;2023-02-15T09:34:40;101718.84;;;3.17;81.71
63405;BME280;49541;57.840;12.306;2023-02-15T09:39:40;101711.41;;;3.28;80.81
63405;BME280;49541;57.840;12.306;2023-02-15T09:50:10;101711.31;;;3.53;79.87
63405;BME280;49541;57.840;12.306;2023-02-15T09:55:21;101700.22;;;4.09;77.51
63405;BME280;49541;57.840;12.306;2023-02-15T10:00:26;101699.03;;;3.96;77.77
63405;BME280;49541;57.840;12.306;2023-02-15T10:05:36;101691.31;;;3.69;78.61
63405;BME280;49541;57.840;12.306;2023-02-15T10:16:23;101689.59;;;3.24;81.22
63405;BME280;49541;57.840;12.306;2023-02-15T10:21:36;101688.63;;;3.71;79.96
63405;BME280;49541;57.840;12.306;2023-02-15T10:26:42;101689.44;;;4.16;77.99
63405;BME280;49541;57.840;12.306;2023-02-15T10:31:50;101675.69;;;3.87;78.60
63405;BME280;49541;57.840;12.306;2023-02-15T10:36:58;101668.97;;;4.21;76.92
63405;BME280;49541;57.840;12.306;2023-02-15T10:47:40;101678.34;;;3.65;80.00
63405;BME280;49541;57.840;12.306;2023-02-15T11:03:05;101656.47;;;4.05;78.67
63405;BME280;49541;57.840;12.306;2023-02-15T11:08:10;101653.44;;;3.94;78.63
63405;BME280;49541;57.840;12.306;2023-02-15T11:13:13;101652.94;;;3.84;78.09
63405;BME280;49541;57.840;12.306;2023-02-15T11:23:33;101632.19;;;4.38;75.61
63405;BME280;49541;57.840;12.306;2023-02-15T11:28:55;101645.41;;;4.18;76.56
63405;BME280;49541;57.840;12.306;2023-02-15T11:33:58;101638.47;;;4.36;75.68
63405;BME280;49541;57.840;12.306;2023-02-15T11:39:02;101636.47;;;4.41;75.19
63405;BME280;49541;57.840;12.306;2023-02-15T11:44:26;101624.28;;;4.38;75.34
63405;BME280;49541;57.840;12.306;2023-02-15T11:49:27;101613.94;;;4.34;75.47
63405;BME280;49541;57.840;12.306;2023-02-15T11:54:30;101609.19;;;4.21;76.81
63405;BME280;49541;57.840;12.306;2023-02-15T11:59:32;101606.50;;;4.23;76.66
63405;BME280;49541;57.840;12.306;2023-02-15T12:04:36;101604.44;;;4.50;75.13
63405;BME280;49541;57.840;12.306;2023-02-15T12:09:46;101594.44;;;4.57;75.58
63405;BME280;49541;57.840;12.306;2023-02-15T12:14:49;101594.44;;;4.57;74.97
63405;BME280;49541;57.840;12.306;2023-02-15T12:19:49;101579.75;;;4.51;75.34
63405;BME280;49541;57.840;12.306;2023-02-15T12:24:53;101581.81;;;4.44;76.27
63405;BME280;49541;57.840;12.306;2023-02-15T12:34:55;101568.13;;;4.55;76.07
63405;BME280;49541;57.840;12.306;2023-02-15T12:40:00;101567.78;;;4.63;77.38
63405;BME280;49541;57.840;12.306;2023-02-15T12:45:02;101555.06;;;4.71;76.52
63405;BME280;49541;57.840;12.306;2023-02-15T12:50:22;101544.53;;;4.71;76.63
63405;BME280;49541;57.840;12.306;2023-02-15T12:55:24;101551.81;;;4.66;76.73
63405;BME280;49541;57.840;12.306;2023-02-15T13:00:26;101543.31;;;4.78;76.80
63405;BME280;49541;57.840;12.306;2023-02-15T13:05:35;101538.28;;;4.55;78.33
63405;BME280;49541;57.840;12.306;2023-02-15T13:10:39;101530.63;;;4.67;78.96
63405;BME280;49541;57.840;12.306;2023-02-15T13:15:40;101522.84;;;4.83;77.89
63405;BME280;49541;57.840;12.306;2023-02-15T13:20:41;101519.59;;;4.59;78.63
63405;BME280;49541;57.840;12.306;2023-02-15T13:25:45;101521.31;;;4.41;80.13
63405;BME280;49541;57.840;12.306;2023-02-15T13:30:50;101504.53;;;4.23;81.05
63405;BME280;49541;57.840;12.306;2023-02-15T13:35:54;101504.03;;;4.34;80.09
63405;BME280;49541;57.840;12.306;2023-02-15T13:40:58;101494.06;;;4.41;80.90
63405;BME280;49541;57.840;12.306;2023-02-15T13:51:09;101483.78;;;4.54;80.20
63405;BME280;49541;57.840;12.306;2023-02-15T13:56:31;101482.38;;;4.65;79.21
63405;BME280;49541;57.840;12.306;2023-02-15T14:01:36;101483.22;;;4.28;80.56
63405;BME280;49541;57.840;12.306;2023-02-15T14:31:47;101456.28;;;4.40;79.23
63405;BME280;49541;57.840;12.306;2023-02-15T14:36:50;101446.75;;;4.38;78.78
63405;BME280;49541;57.840;12.306;2023-02-15T14:41:53;101443.31;;;4.55;79.83
63405;BME280;49541;57.840;12.306;2023-02-15T14:46:59;101435.28;;;4.75;78.79
63405;BME280;49541;57.840;12.306;2023-02-15T14:52:06;101428.81;;;5.00;76.49
63405;BME280;49541;57.840;12.306;2023-02-15T15:22:34;101395.63;;;4.40;79.56
63405;BME280;49541;57.840;12.306;2023-02-15T15:32:38;101377.47;;;4.34;79.33
63405;BME280;49541;57.840;12.306;2023-02-15T15:37:46;101375.03;;;4.48;79.22
63405;BME280;49541;57.840;12.306;2023-02-15T15:48:03;101383.81;;;4.66;78.59
63405;BME280;49541;57.840;12.306;2023-02-15T15:53:18;101373.81;;;4.73;78.62
63405;BME280;49541;57.840;12.306;2023-02-15T15:58:20;101368.03;;;5.01;76.64
63405;BME280;49541;57.840;12.306;2023-02-15T16:03:21;101366.69;;;5.10;75.46
63405;BME280;49541;57.840;12.306;2023-02-15T16:13:28;101353.34;;;4.96;76.09
63405;BME280;49541;57.840;12.306;2023-02-15T16:18:28;101343.69;;;4.77;76.79
63405;BME280;49541;57.840;12.306;2023-02-15T16:28:35;101332.53;;;4.89;76.82
63405;BME280;49541;57.840;12.306;2023-02-15T16:33:36;101328.59;;;4.81;77.02
63405;BME280;49541;57.840;12.306;2023-02-15T16:43:44;101337.97;;;4.86;76.96
63405;BME280;49541;57.840;12.306;2023-02-15T16:48:46;101326.19;;;4.76;77.70
63405;BME280;49541;57.840;12.306;2023-02-15T16:53:47;101323.69;;;4.56;79.08
63405;BME280;49541;57.840;12.306;2023-02-15T16:58:49;101310.03;;;5.00;78.00
63405;BME280;49541;57.840;12.306;2023-02-15T17:03:51;101303.91;;;5.32;76.72
63405;BME280;49541;57.840;12.306;2023-02-15T17:08:52;101306.31;;;4.86;79.05
63405;BME280;49541;57.840;12.306;2023-02-15T17:19:09;101298.41;;;4.86;78.69
63405;BME280;49541;57.840;12.306;2023-02-15T17:24:23;101292.59;;;5.13;78.63
63405;BME280;49541;57.840;12.306;2023-02-15T17:34:40;101284.78;;;4.94;80.01
63405;BME280;49541;57.840;12.306;2023-02-15T17:39:41;101285.06;;;5.23;77.88
63405;BME280;49541;57.840;12.306;2023-02-15T17:44:41;101288.03;;;5.17;77.70
63405;BME280;49541;57.840;12.306;2023-02-15T17:49:41;101272.47;;;5.44;76.65
63405;BME280;49541;57.840;12.306;2023-02-15T17:54:41;101278.50;;;5.30;77.81
63405;BME280;49541;57.840;12.306;2023-02-15T18:00:00;101275.28;;;5.25;76.93
63405;BME280;49541;57.840;12.306;2023-02-15T18:05:19;101261.13;;;5.42;76.51
63405;BME280;49541;57.840;12.306;2023-02-15T18:10:38;101263.31;;;5.18;76.77
63405;BME280;49541;57.840;12.306;2023-02-15T18:15:57;101260.19;;;4.93;79.19
63405;BME280;49541;57.840;12.306;2023-02-15T18:20:57;101244.47;;;4.57;80.48
63405;BME280;49541;57.840;12.306;2023-02-15T18:25:58;101246.50;;;5.03;79.69
63405;BME280;49541;57.840;12.306;2023-02-15T18:30:58;101236.47;;;4.76;80.00
63405;BME280;49541;57.840;12.306;2023-02-15T18:35:59;101226.44;;;4.83;79.76
63405;BME280;49541;57.840;12.306;2023-02-15T18:41:01;101232.25;;;4.89;79.54
63405;BME280;49541;57.840;12.306;2023-02-15T18:46:02;101217.78;;;5.30;78.41
63405;BME280;49541;57.840;12.306;2023-02-15T18:51:02;101227.69;;;5.09;79.10
63405;BME280;49541;57.840;12.306;2023-02-15T18:56:02;101218.50;;;5.00;79.68
63405;BME280;49541;57.840;12.306;2023-02-15T19:01:03;101219.25;;;5.02;79.16
63405;BME280;49541;57.840;12.306;2023-02-15T19:06:03;101204.78;;;4.93;79.65
63405;BME280;49541;57.840;12.306;2023-02-15T19:11:09;101208.13;;;5.13;79.64
63405;BME280;49541;57.840;12.306;2023-02-15T19:21:22;101190.06;;;4.72;82.52
63405;BME280;49541;57.840;12.306;2023-02-15T19:26:23;101171.38;;;4.92;82.29
63405;BME280;49541;57.840;12.306;2023-02-15T19:31:24;101172.66;;;4.85;82.74
63405;BME280;49541;57.840;12.306;2023-02-15T19:36:24;101153.78;;;4.60;82.59
63405;BME280;49541;57.840;12.306;2023-02-15T19:41:28;101151.94;;;4.44;84.19
63405;BME280;49541;57.840;12.306;2023-02-15T19:46:29;101151.41;;;4.88;83.16
63405;BME280;49541;57.840;12.306;2023-02-15T19:51:30;101145.19;;;4.56;84.26
63405;BME280;49541;57.840;12.306;2023-02-15T19:56:30;101136.59;;;4.53;84.74
63405;BME280;49541;57.840;12.306;2023-02-15T20:01:30;101133.38;;;4.13;86.65
63405;BME280;49541;57.840;12.306;2023-02-15T20:06:31;101123.59;;;4.15;88.27
63405;BME280;49541;57.840;12.306;2023-02-15T20:11:31;101117.19;;;4.20;87.62
63405;BME280;49541;57.840;12.306;2023-02-15T20:16:31;101109.72;;;4.28;88.75
63405;BME280;49541;57.840;12.306;2023-02-15T20:21:31;101110.56;;;4.29;88.19
63405;BME280;49541;57.840;12.306;2023-02-15T20:26:32;101102.22;;;4.54;87.83
63405;BME280;49541;57.840;12.306;2023-02-15T20:31:32;101109.81;;;4.09;89.30
63405;BME280;49541;57.840;12.306;2023-02-15T20:36:32;101109.56;;;4.31;89.27
63405;BME280;49541;57.840;12.306;2023-02-15T20:41:33;101103.94;;;4.22;90.60
63405;BME280;49541;57.840;12.306;2023-02-15T20:46:36;101100.63;;;4.34;89.76
63405;BME280;49541;57.840;12.306;2023-02-15T20:51:40;101087.13;;;4.07;90.98
63405;BME280;49541;57.840;12.306;2023-02-15T20:56:41;101084.09;;;3.80;93.12
63405;BME280;49541;57.840;12.306;2023-02-15T21:01:42;101089.06;;;4.03;93.05
63405;BME280;49541;57.840;12.306;2023-02-15T21:06:42;101081.91;;;4.05;92.91
63405;BME280;49541;57.840;12.306;2023-02-15T21:11:42;101068.59;;;3.91;92.76
63405;BME280;49541;57.840;12.306;2023-02-15T21:16:43;101075.41;;;3.43;96.27
63405;BME280;49541;57.840;12.306;2023-02-15T21:21:44;101068.00;;;3.51;97.14
63405;BME280;49541;57.840;12.306;2023-02-15T21:26:45;101076.66;;;3.36;98.55
63405;BME280;49541;57.840;12.306;2023-02-15T21:31:46;101045.19;;;3.33;99.16
63405;BME280;49541;57.840;12.306;2023-02-15T21:36:46;101056.00;;;3.26;99.51
63405;BME280;49541;57.840;12.306;2023-02-15T21:41:48;101037.94;;;3.38;99.57
63405;BME280;49541;57.840;12.306;2023-02-15T21:47:16;101026.94;;;3.47;98.92
63405;BME280;49541;57.840;12.306;2023-02-15T21:52:35;101020.41;;;3.54;98.44
63405;BME280;49541;57.840;12.306;2023-02-15T21:57:35;101016.53;;;3.61;97.52
63405;BME280;49541;57.840;12.306;2023-02-15T22:02:35;101015.09;;;3.56;98.08
63405;BME280;49541;57.840;12.306;2023-02-15T22:07:36;101011.06;;;3.66;96.72
63405;BME280;49541;57.840;12.306;2023-02-15T22:12:36;101004.38;;;3.59;96.96
63405;BME280;49541;57.840;12.306;2023-02-15T22:17:36;101007.44;;;3.34;97.49
63405;BME280;49541;57.840;12.306;2023-02-15T22:22:37;101014.69;;;3.28;97.75
63405;BME280;49541;57.840;12.306;2023-02-15T22:27:38;101007.72;;;3.10;98.39
63405;BME280;49541;57.840;12.306;2023-02-15T22:32:39;101007.56;;;3.31;98.98
63405;BME280;49541;57.840;12.306;2023-02-15T22:37:39;101012.81;;;3.31;98.72
63405;BME280;49541;57.840;12.306;2023-02-15T22:42:39;101002.41;;;3.46;98.55
63405;BME280;49541;57.840;12.306;2023-02-15T22:47:40;101001.50;;;3.63;97.10
63405;BME280;49541;57.840;12.306;2023-02-15T22:52:40;100993.09;;;3.39;97.51
63405;BME280;49541;57.840;12.306;2023-02-15T22:57:40;100985.09;;;3.76;97.71
63405;BME280;49541;57.840;12.306;2023-02-15T23:02:41;100977.81;;;3.46;96.55
63405;BME280;49541;57.840;12.306;2023-02-15T23:07:41;100983.63;;;3.53;96.81
63405;BME280;49541;57.840;12.306;2023-02-15T23:12:41;100976.44;;;3.56;95.88
63405;BME280;49541;57.840;12.306;2023-02-15T23:18:12;100967.75;;;3.54;95.54
63405;BME280;49541;57.840;12.306;2023-02-15T23:23:15;100960.94;;;3.67;95.49
63405;BME280;49541;57.840;12.306;2023-02-15T23:28:34;100959.25;;;3.66;95.23
63405;BME280;49541;57.840;12.306;2023-02-15T23:33:35;100961.78;;;3.51;95.53
63405;BME280;49541;57.840;12.306;2023-02-15T23:38:35;100956.91;;;3.60;95.60
63405;BME280;49541;57.840;12.306;2023-02-15T23:43:35;100952.31;;;3.81;94.58
63405;BME280;49541;57.840;12.306;2023-02-15T23:48:36;100944.72;;;3.75;94.40
63405;BME280;49541;57.840;12.306;2023-02-15T23:53:37;100924.97;;;3.84;94.26
63405;BME280;49541;57.840;12.306;2023-02-15T23:58:37;100924.97;;;3.84;94.30
